sensor_id;sensor_type;location;lat;lon;timestamp;P1;durP1;ratioP1;P2;durP2;ratioP2
51602;SDS011;37954;51.980;5.850;2022-07-18T00:03:52;2.38;;;2.03;;
51602;SDS011;37954;51.980;5.850;2022-07-18T00:08:04;2.05;;;1.85;;
51602;SDS011;37954;51.980;5.850;2022-07-18T00:12:15;2.10;;;1.90;;
51602;SDS011;37954;51.980;5.850;2022-07-18T00:16:27;1.70;;;1.60;;
51602;SDS011;37954;51.980;5.850;2022-07-18T00:20:40;3.03;;;1.85;;
51602;SDS011;37954;51.980;5.850;2022-07-18T00:24:53;1.90;;;1.63;;
51602;SDS011;37954;51.980;5.850;2022-07-18T00:29:05;1.45;;;1.35;;
51602;SDS011;37954;51.980;5.850;2022-07-18T00:33:17;1.83;;;1.70;;
51602;SDS011;37954;51.980;5.850;2022-07-18T00:37:28;1.80;;;1.70;;
51602;SDS011;37954;51.980;5.850;2022-07-18T00:41:44;1.90;;;1.70;;
51602;SDS011;37954;51.980;5.850;2022-07-18T00:45:56;1.35;;;1.27;;
51602;SDS011;37954;51.980;5.850;2022-07-18T00:50:08;1.60;;;1.50;;
51602;SDS011;37954;51.980;5.850;2022-07-18T00:54:20;2.33;;;1.63;;
51602;SDS011;37954;51.980;5.850;2022-07-18T00:58:32;1.77;;;1.67;;
51602;SDS011;37954;51.980;5.850;2022-07-18T01:02:44;1.58;;;1.45;;
51602;SDS011;37954;51.980;5.850;2022-07-18T01:06:56;1.70;;;1.60;;
51602;SDS011;37954;51.980;5.850;2022-07-18T01:11:09;2.17;;;1.60;;
51602;SDS011;37954;51.980;5.850;2022-07-18T01:15:21;1.67;;;1.55;;
51602;SDS011;37954;51.980;5.850;2022-07-18T01:19:32;2.88;;;2.03;;
51602;SDS011;37954;51.980;5.850;2022-07-18T01:23:47;2.92;;;1.92;;
51602;SDS011;37954;51.980;5.850;2022-07-18T01:27:58;2.45;;;1.63;;
51602;SDS011;37954;51.980;5.850;2022-07-18T01:32:10;2.15;;;1.83;;
51602;SDS011;37954;51.980;5.850;2022-07-18T01:36:22;1.70;;;1.60;;
51602;SDS011;37954;51.980;5.850;2022-07-18T01:40:34;1.77;;;1.67;;
51602;SDS011;37954;51.980;5.850;2022-07-18T01:44:45;2.47;;;1.88;;
51602;SDS011;37954;51.980;5.850;2022-07-18T01:48:57;3.13;;;1.90;;
51602;SDS011;37954;51.980;5.850;2022-07-18T01:53:09;3.50;;;1.90;;
51602;SDS011;37954;51.980;5.850;2022-07-18T01:57:20;2.17;;;1.90;;
51602;SDS011;37954;51.980;5.850;2022-07-18T02:01:32;3.47;;;1.83;;
51602;SDS011;37954;51.980;5.850;2022-07-18T02:05:44;2.60;;;1.77;;
51602;SDS011;37954;51.980;5.850;2022-07-18T02:09:55;2.25;;;1.75;;
51602;SDS011;37954;51.980;5.850;2022-07-18T02:14:07;4.53;;;1.98;;
51602;SDS011;37954;51.980;5.850;2022-07-18T02:18:19;3.03;;;1.98;;
51602;SDS011;37954;51.980;5.850;2022-07-18T02:22:31;2.28;;;2.00;;
51602;SDS011;37954;51.980;5.850;2022-07-18T02:26:42;3.35;;;2.30;;
51602;SDS011;37954;51.980;5.850;2022-07-18T02:30:54;2.08;;;1.75;;
51602;SDS011;37954;51.980;5.850;2022-07-18T02:35:06;1.92;;;1.75;;
51602;SDS011;37954;51.980;5.850;2022-07-18T02:39:19;2.42;;;1.70;;
51602;SDS011;37954;51.980;5.850;2022-07-18T02:43:31;2.67;;;2.00;;
51602;SDS011;37954;51.980;5.850;2022-07-18T02:47:43;2.03;;;1.83;;
51602;SDS011;37954;51.980;5.850;2022-07-18T02:51:59;2.58;;;1.85;;
51602;SDS011;37954;51.980;5.850;2022-07-18T02:56:12;1.83;;;1.70;;
51602;SDS011;37954;51.980;5.850;2022-07-18T03:00:24;2.10;;;1.90;;
51602;SDS011;37954;51.980;5.850;2022-07-18T03:04:35;1.80;;;1.70;;
51602;SDS011;37954;51.980;5.850;2022-07-18T03:08:47;2.38;;;2.17;;
51602;SDS011;37954;51.980;5.850;2022-07-18T03:12:59;3.17;;;1.88;;
51602;SDS011;37954;51.980;5.850;2022-07-18T03:17:10;3.45;;;2.00;;
51602;SDS011;37954;51.980;5.850;2022-07-18T03:21:22;4.53;;;2.05;;
51602;SDS011;37954;51.980;5.850;2022-07-18T03:25:34;7.18;;;1.83;;
51602;SDS011;37954;51.980;5.850;2022-07-18T03:29:46;2.10;;;1.90;;
51602;SDS011;37954;51.980;5.850;2022-07-18T03:33:58;1.92;;;1.77;;
51602;SDS011;37954;51.980;5.850;2022-07-18T03:38:10;2.33;;;1.98;;
51602;SDS011;37954;51.980;5.850;2022-07-18T03:42:22;1.88;;;1.77;;
51602;SDS011;37954;51.980;5.850;2022-07-18T03:46:34;1.90;;;1.80;;
51602;SDS011;37954;51.980;5.850;2022-07-18T03:50:46;3.25;;;2.17;;
51602;SDS011;37954;51.980;5.850;2022-07-18T03:54:58;1.73;;;1.63;;
51602;SDS011;37954;51.980;5.850;2022-07-18T03:59:12;1.92;;;1.83;;
51602;SDS011;37954;51.980;5.850;2022-07-18T04:03:24;2.05;;;1.85;;
51602;SDS011;37954;51.980;5.850;2022-07-18T04:07:36;4.00;;;2.25;;
51602;SDS011;37954;51.980;5.850;2022-07-18T04:11:48;2.67;;;2.33;;
51602;SDS011;37954;51.980;5.850;2022-07-18T04:16:00;5.93;;;2.40;;
51602;SDS011;37954;51.980;5.850;2022-07-18T04:20:12;3.10;;;2.03;;
51602;SDS011;37954;51.980;5.850;2022-07-18T04:24:25;2.45;;;2.10;;
51602;SDS011;37954;51.980;5.850;2022-07-18T04:28:37;2.83;;;2.00;;
51602;SDS011;37954;51.980;5.850;2022-07-18T04:37:41;3.33;;;2.05;;
51602;SDS011;37954;51.980;5.850;2022-07-18T04:41:53;1.80;;;1.70;;
51602;SDS011;37954;51.980;5.850;2022-07-18T04:46:05;1.95;;;1.77;;
51602;SDS011;37954;51.980;5.850;2022-07-18T04:50:17;3.05;;;2.28;;
51602;SDS011;37954;51.980;5.850;2022-07-18T04:54:31;4.00;;;2.10;;
51602;SDS011;37954;51.980;5.850;2022-07-18T04:58:43;3.22;;;2.58;;
51602;SDS011;37954;51.980;5.850;2022-07-18T05:02:56;3.17;;;2.53;;
51602;SDS011;37954;51.980;5.850;2022-07-18T05:07:09;2.55;;;2.30;;
51602;SDS011;37954;51.980;5.850;2022-07-18T05:11:21;3.33;;;2.40;;
51602;SDS011;37954;51.980;5.850;2022-07-18T05:15:33;3.00;;;2.30;;
51602;SDS011;37954;51.980;5.850;2022-07-18T05:19:45;3.08;;;2.33;;
51602;SDS011;37954;51.980;5.850;2022-07-18T05:23:57;3.58;;;2.50;;
51602;SDS011;37954;51.980;5.850;2022-07-18T05:28:09;3.22;;;2.60;;
51602;SDS011;37954;51.980;5.850;2022-07-18T05:32:23;3.85;;;2.40;;
51602;SDS011;37954;51.980;5.850;2022-07-18T05:36:35;3.00;;;2.70;;
51602;SDS011;37954;51.980;5.850;2022-07-18T05:40:47;3.08;;;2.42;;
51602;SDS011;37954;51.980;5.850;2022-07-18T05:44:59;3.92;;;2.90;;
51602;SDS011;37954;51.980;5.850;2022-07-18T05:49:12;3.17;;;2.72;;
51602;SDS011;37954;51.980;5.850;2022-07-18T06:14:36;3.40;;;3.05;;
51602;SDS011;37954;51.980;5.850;2022-07-18T06:18:47;3.92;;;2.42;;
51602;SDS011;37954;51.980;5.850;2022-07-18T06:22:59;3.10;;;2.78;;
51602;SDS011;37954;51.980;5.850;2022-07-18T06:27:11;2.92;;;2.70;;
51602;SDS011;37954;51.980;5.850;2022-07-18T06:31:22;2.78;;;2.58;;
51602;SDS011;37954;51.980;5.850;2022-07-18T06:35:35;4.10;;;2.80;;
51602;SDS011;37954;51.980;5.850;2022-07-18T06:39:47;2.38;;;2.17;;
51602;SDS011;37954;51.980;5.850;2022-07-18T06:43:58;6.38;;;2.78;;
51602;SDS011;37954;51.980;5.850;2022-07-18T06:48:10;3.38;;;2.33;;
51602;SDS011;37954;51.980;5.850;2022-07-18T06:52:22;2.25;;;2.15;;
51602;SDS011;37954;51.980;5.850;2022-07-18T06:56:34;2.70;;;2.00;;
51602;SDS011;37954;51.980;5.850;2022-07-18T07:00:45;2.13;;;1.85;;
51602;SDS011;37954;51.980;5.850;2022-07-18T07:04:57;2.22;;;2.03;;
51602;SDS011;37954;51.980;5.850;2022-07-18T07:09:09;2.80;;;2.03;;
51602;SDS011;37954;51.980;5.850;2022-07-18T07:13:20;2.10;;;1.90;;
51602;SDS011;37954;51.980;5.850;2022-07-18T07:17:32;1.95;;;1.75;;
51602;SDS011;37954;51.980;5.850;2022-07-18T07:21:47;2.78;;;2.10;;
51602;SDS011;37954;51.980;5.850;2022-07-18T07:54:22;1.63;;;1.52;;
51602;SDS011;37954;51.980;5.850;2022-07-18T07:58:34;1.85;;;1.52;;
51602;SDS011;37954;51.980;5.850;2022-07-18T08:02:49;1.38;;;1.27;;
51602;SDS011;37954;51.980;5.850;2022-07-18T08:07:09;1.60;;;1.50;;
51602;SDS011;37954;51.980;5.850;2022-07-18T08:11:21;1.80;;;1.70;;
51602;SDS011;37954;51.980;5.850;2022-07-18T08:15:33;1.60;;;1.50;;
51602;SDS011;37954;51.980;5.850;2022-07-18T08:19:44;1.80;;;1.35;;
51602;SDS011;37954;51.980;5.850;2022-07-18T08:23:56;1.50;;;1.40;;
51602;SDS011;37954;51.980;5.850;2022-07-18T08:28:15;1.52;;;1.42;;
51602;SDS011;37954;51.980;5.850;2022-07-18T08:32:27;2.42;;;1.40;;
51602;SDS011;37954;51.980;5.850;2022-07-18T08:36:38;1.40;;;1.30;;
51602;SDS011;37954;51.980;5.850;2022-07-18T08:40:51;2.20;;;1.50;;
51602;SDS011;37954;51.980;5.850;2022-07-18T08:45:04;2.13;;;1.73;;
51602;SDS011;37954;51.980;5.850;2022-07-18T08:49:16;2.20;;;1.60;;
51602;SDS011;37954;51.980;5.850;2022-07-18T08:53:28;2.50;;;1.60;;
51602;SDS011;37954;51.980;5.850;2022-07-18T08:57:41;1.70;;;1.55;;
51602;SDS011;37954;51.980;5.850;2022-07-18T09:01:56;2.38;;;2.10;;
51602;SDS011;37954;51.980;5.850;2022-07-18T09:06:12;2.15;;;1.52;;
51602;SDS011;37954;51.980;5.850;2022-07-18T09:10:24;4.60;;;2.10;;
51602;SDS011;37954;51.980;5.850;2022-07-18T10:29:28;1.85;;;1.60;;
51602;SDS011;37954;51.980;5.850;2022-07-18T10:33:41;1.60;;;1.50;;
51602;SDS011;37954;51.980;5.850;2022-07-18T10:38:19;1.90;;;1.60;;
51602;SDS011;37954;51.980;5.850;2022-07-18T11:56:59;1.80;;;1.70;;
51602;SDS011;37954;51.980;5.850;2022-07-18T12:19:13;3.38;;;1.73;;
51602;SDS011;37954;51.980;5.850;2022-07-18T12:35:45;1.85;;;1.75;;
51602;SDS011;37954;51.980;5.850;2022-07-18T12:45:53;1.98;;;1.52;;
51602;SDS011;37954;51.980;5.850;2022-07-18T12:51:28;1.65;;;1.55;;
51602;SDS011;37954;51.980;5.850;2022-07-18T12:56:09;1.42;;;1.33;;
51602;SDS011;37954;51.980;5.850;2022-07-18T13:06:58;1.92;;;1.70;;
51602;SDS011;37954;51.980;5.850;2022-07-18T13:12:12;1.70;;;1.60;;
51602;SDS011;37954;51.980;5.850;2022-07-18T13:17:45;2.38;;;1.67;;
51602;SDS011;37954;51.980;5.850;2022-07-18T13:22:35;2.85;;;1.50;;
51602;SDS011;37954;51.980;5.850;2022-07-18T13:27:36;1.70;;;1.60;;
51602;SDS011;37954;51.980;5.850;2022-07-18T13:32:33;1.40;;;1.30;;
51602;SDS011;37954;51.980;5.850;2022-07-18T13:36:45;1.40;;;1.33;;
51602;SDS011;37954;51.980;5.850;2022-07-18T13:41:00;1.63;;;1.35;;
51602;SDS011;37954;51.980;5.850;2022-07-18T13:45:19;1.40;;;1.30;;
51602;SDS011;37954;51.980;5.850;2022-07-18T13:49:31;1.70;;;1.60;;
51602;SDS011;37954;51.980;5.850;2022-07-18T13:53:43;1.63;;;1.48;;
51602;SDS011;37954;51.980;5.850;2022-07-18T13:57:54;1.25;;;1.20;;
51602;SDS011;37954;51.980;5.850;2022-07-18T14:02:09;1.48;;;1.38;;
51602;SDS011;37954;51.980;5.850;2022-07-18T14:06:32;1.85;;;1.50;;
51602;SDS011;37954;51.980;5.850;2022-07-18T15:20:20;1.17;;;1.13;;
51602;SDS011;37954;51.980;5.850;2022-07-18T15:25:20;1.40;;;1.30;;
51602;SDS011;37954;51.980;5.850;2022-07-18T15:36:40;1.90;;;1.20;;
51602;SDS011;37954;51.980;5.850;2022-07-18T15:41:08;1.98;;;1.33;;
51602;SDS011;37954;51.980;5.850;2022-07-18T15:45:50;1.85;;;1.75;;
51602;SDS011;37954;51.980;5.850;2022-07-18T15:50:02;1.55;;;1.45;;
51602;SDS011;37954;51.980;5.850;2022-07-18T15:54:16;1.45;;;1.35;;
51602;SDS011;37954;51.980;5.850;2022-07-18T15:58:30;1.48;;;1.38;;
51602;SDS011;37954;51.980;5.850;2022-07-18T16:02:45;1.55;;;1.45;;
51602;SDS011;37954;51.980;5.850;2022-07-18T16:06:56;8.13;;;1.50;;
51602;SDS011;37954;51.980;5.850;2022-07-18T16:11:11;1.55;;;1.45;;
51602;SDS011;37954;51.980;5.850;2022-07-18T16:15:25;2.60;;;1.30;;
51602;SDS011;37954;51.980;5.850;2022-07-18T16:19:43;6.93;;;1.65;;
51602;SDS011;37954;51.980;5.850;2022-07-18T16:23:55;1.60;;;1.50;;
51602;SDS011;37954;51.980;5.850;2022-07-18T16:28:24;1.33;;;1.23;;
51602;SDS011;37954;51.980;5.850;2022-07-18T17:07:05;1.95;;;1.83;;
51602;SDS011;37954;51.980;5.850;2022-07-18T17:55:20;3.08;;;1.80;;
51602;SDS011;37954;51.980;5.850;2022-07-18T17:59:35;1.70;;;1.60;;
51602;SDS011;37954;51.980;5.850;2022-07-18T18:03:50;1.50;;;1.40;;
51602;SDS011;37954;51.980;5.850;2022-07-18T18:08:05;17.23;;;1.70;;
51602;SDS011;37954;51.980;5.850;2022-07-18T18:12:19;3.28;;;2.08;;
51602;SDS011;37954;51.980;5.850;2022-07-18T18:16:32;2.38;;;1.80;;
51602;SDS011;37954;51.980;5.850;2022-07-18T18:20:44;2.13;;;1.92;;
51602;SDS011;37954;51.980;5.850;2022-07-18T18:24:56;2.42;;;2.22;;
51602;SDS011;37954;51.980;5.850;2022-07-18T18:29:07;3.10;;;2.90;;
51602;SDS011;37954;51.980;5.850;2022-07-18T18:33:27;3.05;;;2.78;;
51602;SDS011;37954;51.980;5.850;2022-07-18T18:37:42;3.30;;;3.00;;
51602;SDS011;37954;51.980;5.850;2022-07-18T18:42:00;3.40;;;2.95;;
51602;SDS011;37954;51.980;5.850;2022-07-18T18:46:18;3.80;;;2.70;;
51602;SDS011;37954;51.980;5.850;2022-07-18T18:50:36;1.95;;;1.85;;
51602;SDS011;37954;51.980;5.850;2022-07-18T18:54:53;2.25;;;2.05;;
51602;SDS011;37954;51.980;5.850;2022-07-18T18:59:08;2.10;;;1.90;;
51602;SDS011;37954;51.980;5.850;2022-07-18T19:03:24;3.83;;;1.85;;
51602;SDS011;37954;51.980;5.850;2022-07-18T19:07:42;2.15;;;2.00;;
51602;SDS011;37954;51.980;5.850;2022-07-18T19:12:00;1.65;;;1.55;;
51602;SDS011;37954;51.980;5.850;2022-07-18T19:16:12;3.58;;;1.77;;
51602;SDS011;37954;51.980;5.850;2022-07-18T19:20:35;2.10;;;2.00;;
51602;SDS011;37954;51.980;5.850;2022-07-18T19:24:51;2.85;;;2.30;;
51602;SDS011;37954;51.980;5.850;2022-07-18T19:29:03;2.80;;;2.45;;
51602;SDS011;37954;51.980;5.850;2022-07-18T19:33:15;2.35;;;2.00;;
51602;SDS011;37954;51.980;5.850;2022-07-18T19:37:26;1.77;;;1.67;;
51602;SDS011;37954;51.980;5.850;2022-07-18T19:41:39;6.45;;;2.00;;
51602;SDS011;37954;51.980;5.850;2022-07-18T19:45:58;2.50;;;2.15;;
51602;SDS011;37954;51.980;5.850;2022-07-18T19:50:14;1.80;;;1.70;;
51602;SDS011;37954;51.980;5.850;2022-07-18T19:54:29;1.80;;;1.70;;
51602;SDS011;37954;51.980;5.850;2022-07-18T19:58:41;3.05;;;1.80;;
51602;SDS011;37954;51.980;5.850;2022-07-18T20:02:56;2.88;;;1.67;;
51602;SDS011;37954;51.980;5.850;2022-07-18T20:07:10;2.03;;;1.85;;
51602;SDS011;37954;51.980;5.850;2022-07-18T20:11:23;1.85;;;1.58;;
51602;SDS011;37954;51.980;5.850;2022-07-18T20:15:35;2.13;;;1.92;;
51602;SDS011;37954;51.980;5.850;2022-07-18T20:19:48;1.83;;;1.73;;
51602;SDS011;37954;51.980;5.850;2022-07-18T20:24:00;2.20;;;2.00;;
51602;SDS011;37954;51.980;5.850;2022-07-18T20:28:11;1.95;;;1.75;;
51602;SDS011;37954;51.980;5.850;2022-07-18T20:32:27;1.65;;;1.55;;
51602;SDS011;37954;51.980;5.850;2022-07-18T20:36:39;1.75;;;1.63;;
51602;SDS011;37954;51.980;5.850;2022-07-18T20:40:52;2.30;;;1.70;;
51602;SDS011;37954;51.980;5.850;2022-07-18T20:45:04;1.42;;;1.33;;
51602;SDS011;37954;51.980;5.850;2022-07-18T20:49:17;2.10;;;1.88;;
51602;SDS011;37954;51.980;5.850;2022-07-18T20:53:29;2.75;;;2.05;;
51602;SDS011;37954;51.980;5.850;2022-07-18T20:57:43;1.98;;;1.73;;
51602;SDS011;37954;51.980;5.850;2022-07-18T21:01:57;3.03;;;1.88;;
51602;SDS011;37954;51.980;5.850;2022-07-18T21:06:09;1.80;;;1.70;;
51602;SDS011;37954;51.980;5.850;2022-07-18T21:10:21;2.00;;;1.80;;
51602;SDS011;37954;51.980;5.850;2022-07-18T21:14:32;2.05;;;1.65;;
51602;SDS011;37954;51.980;5.850;2022-07-18T21:19:03;1.95;;;1.85;;
51602;SDS011;37954;51.980;5.850;2022-07-18T21:23:14;4.45;;;2.28;;
51602;SDS011;37954;51.980;5.850;2022-07-18T21:27:26;1.90;;;1.80;;
51602;SDS011;37954;51.980;5.850;2022-07-18T21:31:38;2.13;;;2.00;;
51602;SDS011;37954;51.980;5.850;2022-07-18T21:35:50;2.20;;;1.77;;
51602;SDS011;37954;51.980;5.850;2022-07-18T21:40:02;2.20;;;1.83;;
51602;SDS011;37954;51.980;5.850;2022-07-18T21:44:15;1.70;;;1.60;;
51602;SDS011;37954;51.980;5.850;2022-07-18T21:48:26;5.07;;;1.80;;
51602;SDS011;37954;51.980;5.850;2022-07-18T21:52:38;2.03;;;1.88;;
51602;SDS011;37954;51.980;5.850;2022-07-18T21:56:50;1.88;;;1.77;;
51602;SDS011;37954;51.980;5.850;2022-07-18T22:01:03;2.00;;;1.80;;
51602;SDS011;37954;51.980;5.850;2022-07-18T22:05:17;2.15;;;1.95;;
51602;SDS011;37954;51.980;5.850;2022-07-18T22:09:29;6.82;;;2.03;;
51602;SDS011;37954;51.980;5.850;2022-07-18T22:13:41;2.17;;;1.30;;
51602;SDS011;37954;51.980;5.850;2022-07-18T22:17:52;2.25;;;1.85;;
51602;SDS011;37954;51.980;5.850;2022-07-18T22:22:05;1.52;;;1.42;;
51602;SDS011;37954;51.980;5.850;2022-07-18T22:26:17;4.50;;;1.92;;
51602;SDS011;37954;51.980;5.850;2022-07-18T22:30:30;3.00;;;1.70;;
51602;SDS011;37954;51.980;5.850;2022-07-18T22:34:43;1.85;;;1.75;;
51602;SDS011;37954;51.980;5.850;2022-07-18T22:38:55;4.22;;;1.92;;
51602;SDS011;37954;51.980;5.850;2022-07-18T22:43:08;2.08;;;1.88;;
51602;SDS011;37954;51.980;5.850;2022-07-18T22:47:20;2.75;;;1.98;;
51602;SDS011;37954;51.980;5.850;2022-07-18T22:51:31;1.65;;;1.55;;
51602;SDS011;37954;51.980;5.850;2022-07-18T22:55:44;1.75;;;1.60;;
51602;SDS011;37954;51.980;5.850;2022-07-18T22:59:55;1.77;;;1.67;;
51602;SDS011;37954;51.980;5.850;2022-07-18T23:04:07;1.80;;;1.70;;
51602;SDS011;37954;51.980;5.850;2022-07-18T23:08:19;2.58;;;2.05;;
51602;SDS011;37954;51.980;5.850;2022-07-18T23:12:31;1.60;;;1.50;;
51602;SDS011;37954;51.980;5.850;2022-07-18T23:16:42;1.83;;;1.73;;
51602;SDS011;37954;51.980;5.850;2022-07-18T23:20:55;2.30;;;1.58;;
51602;SDS011;37954;51.980;5.850;2022-07-18T23:25:07;1.70;;;1.58;;
51602;SDS011;37954;51.980;5.850;2022-07-18T23:29:20;1.70;;;1.60;;
51602;SDS011;37954;51.980;5.850;2022-07-18T23:33:32;1.75;;;1.65;;
51602;SDS011;37954;51.980;5.850;2022-07-18T23:37:44;1.70;;;1.60;;
51602;SDS011;37954;51.980;5.850;2022-07-18T23:41:56;3.45;;;1.80;;
51602;SDS011;37954;51.980;5.850;2022-07-18T23:46:09;1.80;;;1.67;;
51602;SDS011;37954;51.980;5.850;2022-07-18T23:50:20;1.80;;;1.70;;
51602;SDS011;37954;51.980;5.850;2022-07-18T23:54:32;1.92;;;1.83;;
51602;SDS011;37954;51.980;5.850;2022-07-18T23:58:44;4.82;;;1.70;;
